OOCL Nagoya — VRFX8 — position and weather

sailwx.info

Track history (hours):
 
Tides and Currents Weather Stations Pressure Air Temp Water Temp Dewpoint Dewpoint Depression Visibility Wind Speed Wind Dir Waves Ship Positions

OOCL Nagoya

Last reported at 2015-May-22 01:20 UTC. Time now 2015-May-22 13:09 UTC.
Position N 24°32' E 119°18'.

Length 261 m; draft 9 m.

Type: Cargo ship. MMSI: 477627900.

Date/timePositionNaut miles runAvg speedWind from/ knotsBaromVisibWave heightAir tempDewpointWater temp
2015-May-22 01:20N 24°32' E 119°18'3425.0
2015-May-22 00:00N 24°12' E 118°48'12 7.4 030 / 171008.0 5.4 1.021.018.020.0
2015-May-21 22:25N 24°05' E 118°38'1314.8
2015-May-21 21:33N 23°58' E 118°26'1514.6
2015-May-21 20:33N 23°49' E 118°14'1414.0
2015-May-21 19:33N 23°41' E 118°02'1414.3
2015-May-21 18:33N 23°32' E 117°49'5115.6
2015-May-21 15:14N 22°59' E 117°06'2414.4
2015-May-21 13:33N 22°46' E 116°43'13013.8
2015-May-21 04:06N 22°08' E 114°29'713.6
2015-May-21 03:33N 22°08' E 114°21'1110.6
2015-May-21 02:33N 22°12' E 114°11'8 8.3
2015-May-21 01:33N 22°19' E 114°07'2 1.4
2015-May-21 00:28N 22°21' E 114°07'0 0.0
2015-May-20 23:19N 22°21' E 114°07'0 0.0
2015-May-20 22:31N 22°21' E 114°07'0 0.0
2015-May-20 21:04N 22°21' E 114°07'0 0.0
2015-May-20 20:13N 22°21' E 114°07'0 0.1
2015-May-20 19:28N 22°21' E 114°07'0 0.0
2015-May-20 17:22N 22°21' E 114°07'0 0.0
2015-May-20 16:19N 22°21' E 114°07'0 0.0
2015-May-20 14:31N 22°21' E 114°07'0 0.0
2015-May-20 11:19N 22°21' E 114°07'0 0.0
2015-May-20 10:31N 22°21' E 114°07'0 0.1
2015-May-20 09:33N 22°21' E 114°07'8 6.3
2015-May-20 08:19N 22°21' E 113°59'810.0
2015-May-20 07:33N 22°27' E 113°53'1 0.8
2015-May-20 06:24N 22°27' E 113°54'0 0.0
2015-May-20 05:30N 22°27' E 113°54'0 0.0
2015-May-20 04:30N 22°27' E 113°54'0 0.0
2015-May-20 03:30N 22°27' E 113°54'0 0.0
2015-May-20 02:24N 22°27' E 113°54'0 0.0
2015-May-20 01:30N 22°27' E 113°54'0 0.0
2015-May-20 00:24N 22°27' E 113°54'0 0.0
2015-May-19 23:24N 22°27' E 113°54'3 3.7
2015-May-19 22:33N 22°24' E 113°53'9 8.4
2015-May-19 21:30N 22°21' E 114°02'1111.6
2015-May-19 20:33N 22°13' E 114°10'8 7.6
2015-May-19 19:33N 22°09' E 114°17'8 8.6
2015-May-19 18:33N 22°03' E 114°24'1010.3
2015-May-19 17:32N 21°52' E 114°21'  
2015-May-16 00:00N 00°30' E 107°54'   140 / 31008.010.8 27.023.025.0
Track history (hours):
 
Tides and Currents Weather Stations Pressure Air Temp Water Temp Dewpoint Dewpoint Depression Visibility Wind Speed Wind Dir Waves Ship Positions

OOCL Nagoya

Last reported at 2015-May-22 01:20 UTC. Time now 2015-May-22 13:09 UTC.
Position N 24°32' E 119°18'.

Length 261 m; draft 9 m.

Type: Cargo ship. MMSI: 477627900.

Date/timePositionNaut miles runAvg speedWind from/ knotsBaromVisibWave heightAir tempDewpointWater temp
2015-May-22 01:20N 24°32' E 119°18'3425.0
2015-May-22 00:00N 24°12' E 118°48'12 7.4 030 / 171008.0 5.4 1.021.018.020.0
2015-May-21 22:25N 24°05' E 118°38'1314.8
2015-May-21 21:33N 23°58' E 118°26'1514.6
2015-May-21 20:33N 23°49' E 118°14'1414.0
2015-May-21 19:33N 23°41' E 118°02'1414.3
2015-May-21 18:33N 23°32' E 117°49'5115.6
2015-May-21 15:14N 22°59' E 117°06'2414.4
2015-May-21 13:33N 22°46' E 116°43'13013.8
2015-May-21 04:06N 22°08' E 114°29'713.6
2015-May-21 03:33N 22°08' E 114°21'1110.6
2015-May-21 02:33N 22°12' E 114°11'8 8.3
2015-May-21 01:33N 22°19' E 114°07'2 1.4
2015-May-21 00:28N 22°21' E 114°07'0 0.0
2015-May-20 23:19N 22°21' E 114°07'0 0.0
2015-May-20 22:31N 22°21' E 114°07'0 0.0
2015-May-20 21:04N 22°21' E 114°07'0 0.0
2015-May-20 20:13N 22°21' E 114°07'0 0.1
2015-May-20 19:28N 22°21' E 114°07'0 0.0
2015-May-20 17:22N 22°21' E 114°07'0 0.0
2015-May-20 16:19N 22°21' E 114°07'0 0.0
2015-May-20 14:31N 22°21' E 114°07'0 0.0
2015-May-20 11:19N 22°21' E 114°07'0 0.0
2015-May-20 10:31N 22°21' E 114°07'0 0.1
2015-May-20 09:33N 22°21' E 114°07'8 6.3
2015-May-20 08:19N 22°21' E 113°59'810.0
2015-May-20 07:33N 22°27' E 113°53'1 0.8
2015-May-20 06:24N 22°27' E 113°54'0 0.0
2015-May-20 05:30N 22°27' E 113°54'0 0.0
2015-May-20 04:30N 22°27' E 113°54'0 0.0
2015-May-20 03:30N 22°27' E 113°54'0 0.0
2015-May-20 02:24N 22°27' E 113°54'0 0.0
2015-May-20 01:30N 22°27' E 113°54'0 0.0
2015-May-20 00:24N 22°27' E 113°54'0 0.0
2015-May-19 23:24N 22°27' E 113°54'3 3.7
2015-May-19 22:33N 22°24' E 113°53'9 8.4
2015-May-19 21:30N 22°21' E 114°02'1111.6
2015-May-19 20:33N 22°13' E 114°10'8 7.6
2015-May-19 19:33N 22°09' E 114°17'8 8.6
2015-May-19 18:33N 22°03' E 114°24'1010.3
2015-May-19 17:32N 21°52' E 114°21'  
2015-May-16 00:00N 00°30' E 107°54'   140 / 31008.010.8 27.023.025.0

Dump ship's entire track history